createdAt,value
2023-02-22T00:00:20.264Z,60.84
2023-02-22T00:01:20.259Z,61.09
2023-02-22T00:02:20.296Z,61.34
2023-02-22T00:03:20.235Z,61.63
2023-02-22T00:04:20.267Z,60.93
2023-02-22T00:05:20.221Z,60.89
2023-02-22T00:06:20.186Z,60.70
2023-02-22T00:07:20.197Z,60.57
2023-02-22T00:08:20.197Z,60.62
2023-02-22T00:09:20.148Z,60.54
2023-02-22T00:10:20.128Z,60.47
2023-02-22T00:11:20.147Z,60.76
2023-02-22T00:12:20.105Z,60.84
2023-02-22T00:13:20.099Z,60.75
2023-02-22T00:14:20.126Z,60.74
2023-02-22T00:15:20.071Z,60.66
2023-02-22T00:16:20.126Z,60.63
2023-02-22T00:17:20.050Z,60.80
2023-02-22T00:18:20.036Z,60.63
2023-02-22T00:19:20.034Z,60.76
2023-02-22T00:20:20.025Z,60.61
2023-02-22T00:21:19.991Z,60.64
2023-02-22T00:22:19.974Z,60.43
2023-02-22T00:23:20.014Z,60.28
2023-02-22T00:24:19.958Z,60.28
2023-02-22T00:25:19.958Z,60.57
2023-02-22T00:26:19.938Z,60.42
2023-02-22T00:27:19.938Z,60.66
2023-02-22T00:28:19.907Z,60.34
2023-02-22T00:29:19.900Z,60.67
2023-02-22T00:30:19.907Z,60.63
2023-02-22T00:31:20.458Z,60.53
2023-02-22T00:32:19.937Z,60.49
2023-02-22T00:33:19.874Z,60.16
2023-02-22T00:34:19.850Z,60.27
2023-02-22T00:35:19.810Z,60.52
2023-02-22T00:36:19.796Z,60.37
2023-02-22T00:37:19.804Z,60.46
2023-02-22T00:38:19.841Z,60.19
2023-02-22T00:39:19.790Z,60.30
2023-02-22T00:40:19.792Z,60.30
2023-02-22T00:41:20.050Z,60.31
2023-02-22T00:42:19.721Z,60.44
2023-02-22T00:43:19.704Z,60.70
2023-02-22T00:44:19.736Z,60.64
2023-02-22T00:45:19.687Z,60.71
2023-02-22T00:46:19.748Z,61.06
2023-02-22T00:47:19.670Z,60.97
2023-02-22T00:48:19.650Z,60.79
2023-02-22T00:49:19.662Z,60.71
2023-02-22T00:50:19.686Z,60.92
2023-02-22T00:51:19.634Z,60.85
2023-02-22T00:52:19.587Z,60.80
2023-02-22T00:53:19.595Z,60.74
2023-02-22T00:54:19.601Z,60.75
2023-02-22T00:55:19.558Z,60.67
2023-02-22T00:56:19.564Z,60.85
2023-02-22T00:57:19.535Z,60.74
2023-02-22T00:58:19.538Z,60.75
2023-02-22T00:59:19.502Z,60.72
2023-02-22T01:00:19.497Z,60.85
2023-02-22T01:01:19.699Z,60.88
2023-02-22T01:02:19.526Z,61.19
2023-02-22T01:03:19.458Z,61.23
2023-02-22T01:04:19.435Z,60.80
2023-02-22T01:05:19.429Z,60.89
2023-02-22T01:06:19.407Z,61.28
2023-02-22T01:07:19.399Z,61.53
2023-02-22T01:08:19.381Z,61.03
2023-02-22T01:09:19.413Z,61.36
2023-02-22T01:10:19.377Z,61.29
2023-02-22T01:11:19.397Z,61.46
2023-02-22T01:12:19.348Z,60.97
2023-02-22T01:13:19.330Z,60.94
2023-02-22T01:14:19.315Z,60.95
2023-02-22T01:15:19.302Z,60.63
2023-02-22T01:16:19.314Z,60.67
2023-02-22T01:17:19.265Z,60.67
2023-02-22T01:18:19.285Z,61.20
2023-02-22T01:19:19.252Z,61.51
2023-02-22T01:20:19.239Z,61.78
2023-02-22T01:21:19.287Z,62.46
2023-02-22T01:22:19.209Z,62.71
2023-02-22T01:23:19.196Z,63.41
2023-02-22T01:24:19.169Z,63.75
2023-02-22T01:25:19.160Z,63.23
2023-02-22T01:26:19.158Z,62.60
2023-02-22T01:27:19.137Z,62.71
2023-02-22T01:28:19.117Z,62.86
2023-02-22T01:29:19.106Z,63.03
2023-02-22T01:30:19.135Z,63.13
2023-02-22T01:31:19.510Z,63.00
2023-02-22T01:32:19.105Z,62.93
2023-02-22T01:33:19.078Z,62.53
2023-02-22T01:34:19.049Z,63.06
2023-02-22T01:35:19.033Z,62.71
2023-02-22T01:36:19.073Z,62.44
2023-02-22T01:37:19.007Z,62.67
2023-02-22T01:38:19.004Z,62.42
2023-02-22T01:39:18.975Z,62.66
2023-02-22T01:40:18.982Z,62.20
2023-02-22T01:41:18.997Z,62.58
2023-02-22T01:42:18.938Z,62.36
2023-02-22T01:43:18.947Z,62.26
2023-02-22T01:44:18.937Z,61.90
2023-02-22T01:45:18.903Z,61.88
2023-02-22T01:46:18.990Z,61.93
2023-02-22T01:47:18.882Z,61.73
2023-02-22T01:48:18.855Z,61.70
2023-02-22T01:49:18.859Z,61.48
2023-02-22T01:50:18.849Z,61.44
2023-02-22T01:51:19.100Z,61.47
2023-02-22T01:52:18.812Z,61.57
2023-02-22T01:53:18.814Z,61.56
2023-02-22T01:54:18.806Z,61.60
2023-02-22T01:55:18.781Z,61.49
2023-02-22T01:56:18.789Z,61.54
2023-02-22T01:57:18.742Z,61.42
2023-02-22T01:58:18.724Z,61.40
2023-02-22T01:59:18.772Z,61.08
2023-02-22T02:00:18.707Z,61.30
2023-02-22T02:01:19.080Z,61.44
2023-02-22T02:02:18.729Z,61.26
2023-02-22T02:03:18.670Z,61.44
2023-02-22T02:04:18.652Z,61.20
2023-02-22T02:05:18.753Z,61.19
2023-02-22T02:06:18.621Z,61.13
2023-02-22T02:07:18.617Z,61.43
2023-02-22T02:08:18.636Z,61.58
2023-02-22T02:09:18.587Z,61.50
2023-02-22T02:10:18.572Z,61.40
2023-02-22T02:11:18.849Z,61.11
2023-02-22T02:12:18.570Z,61.17
2023-02-22T02:13:18.543Z,61.35
2023-02-22T02:14:18.550Z,61.62
2023-02-22T02:15:18.514Z,61.28
2023-02-22T02:16:18.503Z,61.36
2023-02-22T02:17:18.510Z,61.21
2023-02-22T02:18:18.480Z,61.18
2023-02-22T02:19:18.474Z,61.09
2023-02-22T02:20:18.446Z,60.97
2023-02-22T02:21:18.556Z,61.00
2023-02-22T02:22:18.426Z,61.13
2023-02-22T02:23:18.443Z,61.02
2023-02-22T02:24:18.425Z,61.14
2023-02-22T02:25:18.381Z,61.00
2023-02-22T02:26:18.413Z,61.10
2023-02-22T02:27:18.390Z,61.16
2023-02-22T02:28:18.342Z,61.26
2023-02-22T02:29:18.328Z,61.19
2023-02-22T02:30:18.397Z,61.40
2023-02-22T02:31:18.747Z,61.57
2023-02-22T02:32:18.363Z,61.37
2023-02-22T02:33:18.310Z,61.84
2023-02-22T02:34:18.262Z,61.84
2023-02-22T02:35:18.261Z,61.55
2023-02-22T02:36:18.263Z,61.64
2023-02-22T02:37:18.225Z,61.62
2023-02-22T02:38:18.292Z,61.40
2023-02-22T02:39:18.227Z,61.30
2023-02-22T02:40:18.222Z,61.43
2023-02-22T02:41:18.542Z,61.39
2023-02-22T02:42:18.160Z,61.10
2023-02-22T02:43:18.149Z,61.14
2023-02-22T02:44:18.138Z,61.10
2023-02-22T02:45:18.133Z,61.14
2023-02-22T02:46:18.105Z,61.11
2023-02-22T02:47:18.114Z,61.23
2023-02-22T02:48:18.128Z,61.39
2023-02-22T02:49:18.074Z,61.22
2023-02-22T02:50:18.050Z,61.10
2023-02-22T02:51:18.348Z,61.02
2023-02-22T02:52:18.030Z,60.97
2023-02-22T02:53:18.197Z,61.19
2023-02-22T02:54:18.011Z,61.28
2023-02-22T02:55:18.000Z,61.14
2023-02-22T02:56:17.980Z,61.09
2023-02-22T02:57:17.979Z,61.05
2023-02-22T02:58:17.949Z,61.20
2023-02-22T02:59:17.952Z,61.11
2023-02-22T03:00:17.970Z,61.13
2023-02-22T03:01:18.259Z,61.06
2023-02-22T03:02:17.894Z,61.22
2023-02-22T03:03:17.908Z,61.12
2023-02-22T03:04:17.874Z,61.22
2023-02-22T03:05:17.888Z,61.43
2023-02-22T03:06:17.869Z,61.70
2023-02-22T03:07:17.846Z,61.18
2023-02-22T03:08:17.824Z,61.21
2023-02-22T03:09:17.838Z,61.34
2023-02-22T03:10:17.802Z,61.34
2023-02-22T03:11:18.099Z,61.33
2023-02-22T03:12:17.765Z,61.44
2023-02-22T03:13:17.764Z,61.52
2023-02-22T03:14:17.746Z,61.37
2023-02-22T03:15:17.739Z,61.45
2023-02-22T03:16:17.736Z,61.51
2023-02-22T03:17:17.704Z,61.41
2023-02-22T03:18:17.721Z,61.38
2023-02-22T03:19:17.683Z,61.46
2023-02-22T03:20:17.677Z,61.32
2023-02-22T03:21:18.000Z,61.33
2023-02-22T03:22:17.641Z,61.55
2023-02-22T03:23:17.640Z,61.28
2023-02-22T03:24:17.635Z,61.36
2023-02-22T03:25:17.596Z,61.14
2023-02-22T03:26:17.590Z,61.16
2023-02-22T03:27:17.595Z,60.56
2023-02-22T03:28:17.576Z,60.60
2023-02-22T03:29:17.545Z,60.23
2023-02-22T03:30:17.592Z,60.90
2023-02-22T03:31:17.985Z,60.95
2023-02-22T03:32:17.531Z,61.26
2023-02-22T03:33:17.493Z,61.24
2023-02-22T03:34:17.479Z,60.54
2023-02-22T03:35:17.478Z,60.35
2023-02-22T03:36:17.476Z,60.55
2023-02-22T03:37:17.459Z,60.66
2023-02-22T03:38:17.427Z,60.76
2023-02-22T03:39:17.432Z,61.04
2023-02-22T03:40:17.433Z,61.55
2023-02-22T03:41:17.841Z,61.92
2023-02-22T03:42:17.425Z,62.48
2023-02-22T03:43:17.379Z,62.95
2023-02-22T03:44:17.360Z,62.96
2023-02-22T03:45:17.370Z,63.32
2023-02-22T03:46:17.391Z,63.39
2023-02-22T03:47:17.321Z,63.75
2023-02-22T03:48:17.306Z,64.03
2023-02-22T03:49:17.348Z,64.44
2023-02-22T03:50:17.283Z,64.71
2023-02-22T03:51:17.474Z,64.63
2023-02-22T03:52:17.321Z,64.51
2023-02-22T03:53:17.249Z,64.45
2023-02-22T03:54:17.217Z,64.17
2023-02-22T03:55:17.282Z,64.02
2023-02-22T03:56:17.212Z,64.11
2023-02-22T03:57:17.179Z,63.75
2023-02-22T03:58:17.179Z,63.43
2023-02-22T03:59:17.160Z,62.93
2023-02-22T04:00:17.156Z,62.48
2023-02-22T04:01:17.549Z,62.64
2023-02-22T04:02:17.116Z,62.74
2023-02-22T04:03:17.128Z,62.45
2023-02-22T04:04:17.149Z,62.18
2023-02-22T04:05:17.082Z,62.35
2023-02-22T04:06:17.077Z,62.90
2023-02-22T04:07:17.058Z,63.16
2023-02-22T04:08:17.038Z,63.33
2023-02-22T04:09:17.031Z,63.08
2023-02-22T04:10:17.021Z,62.99
2023-02-22T04:11:17.241Z,62.60
2023-02-22T04:12:16.997Z,62.75
2023-02-22T04:13:16.984Z,62.77
2023-02-22T04:14:16.956Z,62.38
2023-02-22T04:15:16.961Z,62.26
2023-02-22T04:16:16.995Z,62.25
2023-02-22T04:17:16.927Z,62.30
2023-02-22T04:18:16.923Z,62.31
2023-02-22T04:19:16.892Z,62.08
2023-02-22T04:20:16.885Z,61.79
2023-02-22T04:21:17.161Z,61.71
2023-02-22T04:22:16.855Z,61.79
2023-02-22T04:23:16.846Z,61.71
2023-02-22T04:24:16.862Z,61.90
2023-02-22T04:25:16.825Z,61.78
2023-02-22T04:26:16.808Z,61.56
2023-02-22T04:27:16.797Z,61.41
2023-02-22T04:28:16.781Z,61.30
2023-02-22T04:29:16.782Z,61.53
2023-02-22T04:30:16.787Z,61.29
2023-02-22T04:31:17.157Z,61.15
2023-02-22T04:32:16.773Z,61.10
2023-02-22T04:33:16.712Z,61.24
2023-02-22T04:34:16.710Z,61.10
2023-02-22T04:35:16.718Z,61.26
2023-02-22T04:36:16.676Z,61.23
2023-02-22T04:37:16.663Z,61.16
2023-02-22T04:38:16.658Z,61.29
2023-02-22T04:39:16.732Z,61.24
2023-02-22T04:40:16.627Z,61.23
2023-02-22T04:41:16.910Z,61.18
2023-02-22T04:42:16.604Z,61.18
2023-02-22T04:43:16.600Z,61.23
2023-02-22T04:44:16.573Z,61.25
2023-02-22T04:45:16.552Z,61.22
2023-02-22T04:46:16.572Z,61.21
2023-02-22T04:47:16.538Z,61.57
2023-02-22T04:48:16.520Z,61.73
2023-02-22T04:49:16.530Z,61.57
2023-02-22T04:50:16.495Z,61.73
2023-02-22T04:51:16.735Z,61.88
2023-02-22T04:52:16.479Z,61.84
2023-02-22T04:53:16.481Z,61.81
2023-02-22T04:54:16.438Z,61.80
2023-02-22T04:55:16.453Z,61.72
2023-02-22T04:56:16.425Z,61.66
2023-02-22T04:57:16.412Z,61.67
2023-02-22T04:58:16.385Z,61.55
2023-02-22T04:59:16.380Z,61.61
2023-02-22T05:00:16.369Z,61.83
2023-02-22T05:01:16.717Z,61.86
2023-02-22T05:02:16.386Z,61.84
2023-02-22T05:03:16.325Z,61.70
2023-02-22T05:04:16.314Z,61.63
2023-02-22T05:05:16.353Z,61.55
2023-02-22T05:06:16.297Z,61.53
2023-02-22T05:07:16.309Z,61.58
2023-02-22T05:08:16.254Z,61.52
2023-02-22T05:09:16.243Z,61.38
2023-02-22T05:10:16.245Z,61.43
2023-02-22T05:11:16.497Z,61.49
2023-02-22T05:12:16.214Z,61.48
2023-02-22T05:13:16.184Z,61.68
2023-02-22T05:14:16.200Z,61.78
2023-02-22T05:15:16.176Z,61.75
2023-02-22T05:16:16.247Z,61.96
2023-02-22T05:17:16.157Z,61.69
2023-02-22T05:18:16.142Z,61.89
2023-02-22T05:19:16.180Z,61.83
2023-02-22T05:20:17.020Z,61.76
2023-02-22T05:21:16.454Z,61.59
2023-02-22T05:22:16.107Z,61.55
2023-02-22T05:23:16.070Z,61.70
2023-02-22T05:24:16.078Z,61.73
2023-02-22T05:25:16.039Z,61.50
2023-02-22T05:26:16.021Z,61.47
2023-02-22T05:27:16.032Z,61.21
2023-02-22T05:28:16.002Z,61.17
2023-02-22T05:29:15.993Z,61.21
2023-02-22T05:30:16.028Z,61.20
2023-02-22T05:31:16.361Z,61.06
2023-02-22T05:32:16.092Z,61.20
2023-02-22T05:33:15.955Z,61.12
2023-02-22T05:34:15.923Z,61.31
2023-02-22T05:35:15.902Z,61.22
2023-02-22T05:36:15.900Z,61.20
2023-02-22T05:37:15.898Z,61.25
2023-02-22T05:38:15.888Z,61.29
2023-02-22T05:39:15.868Z,61.31
2023-02-22T05:40:15.847Z,61.20
2023-02-22T05:41:16.276Z,61.31
2023-02-22T05:42:15.819Z,61.36
2023-02-22T05:43:15.819Z,61.35
2023-02-22T05:44:15.794Z,61.31
2023-02-22T05:45:15.784Z,61.39
2023-02-22T05:46:15.791Z,61.35
2023-02-22T05:47:15.785Z,61.33
2023-02-22T05:48:15.761Z,61.28
2023-02-22T05:49:15.727Z,61.55
2023-02-22T05:50:15.727Z,61.43
2023-02-22T05:51:16.140Z,61.73
2023-02-22T05:52:15.689Z,61.76
2023-02-22T05:53:15.692Z,61.75
2023-02-22T05:54:15.665Z,61.78
2023-02-22T05:55:15.660Z,61.64
2023-02-22T05:56:15.641Z,61.92
2023-02-22T05:57:15.666Z,62.10
2023-02-22T05:58:15.612Z,62.13
2023-02-22T05:59:15.588Z,62.21
2023-02-22T06:00:15.589Z,61.74
2023-02-22T06:01:15.747Z,61.31
2023-02-22T06:02:15.673Z,61.29
2023-02-22T06:03:15.560Z,61.14
2023-02-22T06:04:15.547Z,61.14
2023-02-22T06:05:15.541Z,60.87
2023-02-22T06:06:15.504Z,60.81
2023-02-22T06:07:15.504Z,60.77
2023-02-22T06:08:15.487Z,60.94
2023-02-22T06:09:15.466Z,61.01
2023-02-22T06:10:15.451Z,60.81
2023-02-22T06:11:15.894Z,60.93
2023-02-22T06:12:15.424Z,61.05
2023-02-22T06:13:15.412Z,60.98
2023-02-22T06:14:15.417Z,61.01
2023-02-22T06:15:15.411Z,61.03
2023-02-22T06:16:15.433Z,61.05
2023-02-22T06:17:15.467Z,61.27
2023-02-22T06:18:15.354Z,61.10
2023-02-22T06:19:15.341Z,61.12
2023-02-22T06:20:15.349Z,61.04
2023-02-22T06:21:15.608Z,61.02
2023-02-22T06:22:15.345Z,61.14
2023-02-22T06:23:15.275Z,61.19
2023-02-22T06:24:15.274Z,60.92
2023-02-22T06:25:15.274Z,60.88
2023-02-22T06:26:15.240Z,61.21
2023-02-22T06:27:15.224Z,61.32
2023-02-22T06:28:15.212Z,61.17
2023-02-22T06:29:15.263Z,61.32
2023-02-22T06:30:15.242Z,61.74
2023-02-22T06:31:15.472Z,61.97
2023-02-22T06:32:15.255Z,61.70
2023-02-22T06:33:15.173Z,61.89
2023-02-22T06:34:15.143Z,62.17
2023-02-22T06:35:15.136Z,61.69
2023-02-22T06:36:15.113Z,61.62
2023-02-22T06:37:15.100Z,61.48
2023-02-22T06:38:15.081Z,61.32
2023-02-22T06:39:15.070Z,61.54
2023-02-22T06:40:15.054Z,61.36
2023-02-22T06:41:15.486Z,61.37
2023-02-22T06:42:15.064Z,61.16
2023-02-22T06:43:15.020Z,61.21
2023-02-22T06:44:15.040Z,61.34
2023-02-22T06:45:14.997Z,61.10
2023-02-22T06:46:14.973Z,61.02
2023-02-22T06:47:14.958Z,61.11
2023-02-22T06:48:14.950Z,61.00
2023-02-22T06:49:14.945Z,61.38
2023-02-22T06:50:14.933Z,61.19
2023-02-22T06:51:15.185Z,61.15
2023-02-22T06:52:14.900Z,60.86
2023-02-22T06:53:14.903Z,60.83
2023-02-22T06:54:14.910Z,60.73
2023-02-22T06:55:14.881Z,61.00
2023-02-22T06:56:14.854Z,60.69
2023-02-22T06:57:14.828Z,60.80
2023-02-22T06:58:14.819Z,60.82
2023-02-22T06:59:14.815Z,60.85
2023-02-22T07:00:14.801Z,60.98
2023-02-22T07:01:15.055Z,60.70
2023-02-22T07:02:14.779Z,60.72
2023-02-22T07:03:14.787Z,60.71
2023-02-22T07:04:14.745Z,60.99
2023-02-22T07:05:14.741Z,61.17
2023-02-22T07:06:14.734Z,60.86
2023-02-22T07:07:14.713Z,60.97
2023-02-22T07:08:14.712Z,60.83
2023-02-22T07:09:14.676Z,61.14
2023-02-22T07:10:14.684Z,60.95
2023-02-22T07:11:15.127Z,61.19
2023-02-22T07:12:14.660Z,61.06
2023-02-22T07:13:14.629Z,60.91
2023-02-22T07:14:14.621Z,61.13
2023-02-22T07:15:14.637Z,60.88
2023-02-22T07:16:14.620Z,61.23
2023-02-22T07:17:14.586Z,61.01
2023-02-22T07:18:14.565Z,61.24
2023-02-22T07:19:14.566Z,60.94
2023-02-22T07:20:14.557Z,60.98
2023-02-22T07:21:14.800Z,61.00
2023-02-22T07:22:14.521Z,61.04
2023-02-22T07:23:14.500Z,60.86
2023-02-22T07:24:14.494Z,61.12
2023-02-22T07:25:14.490Z,61.12
2023-02-22T07:26:14.484Z,61.01
2023-02-22T07:27:14.459Z,60.92
2023-02-22T07:28:14.444Z,61.07
2023-02-22T07:29:14.437Z,60.79
2023-02-22T07:30:14.472Z,60.80
2023-02-22T07:31:14.603Z,60.93
2023-02-22T07:32:14.552Z,60.94
2023-02-22T07:33:14.536Z,61.00
2023-02-22T07:34:14.383Z,60.90
2023-02-22T07:35:14.354Z,60.84
2023-02-22T07:36:14.337Z,60.94
2023-02-22T07:37:14.325Z,60.75
2023-02-22T07:38:14.340Z,60.87
2023-02-22T07:39:14.318Z,60.81
2023-02-22T07:40:14.300Z,60.53
2023-02-22T07:41:14.611Z,60.55
2023-02-22T07:42:14.311Z,60.49
2023-02-22T07:43:14.256Z,60.59
2023-02-22T07:44:14.252Z,60.30
2023-02-22T07:45:14.225Z,60.36
2023-02-22T07:46:14.218Z,60.28
2023-02-22T07:47:14.210Z,59.98
2023-02-22T07:48:16.867Z,60.23
2023-02-22T07:49:14.171Z,59.71
2023-02-22T07:50:14.152Z,59.99
2023-02-22T07:51:14.290Z,59.60
2023-02-22T07:52:14.127Z,59.75
2023-02-22T07:53:14.115Z,59.93
2023-02-22T07:54:14.104Z,59.83
2023-02-22T07:55:14.661Z,59.84
2023-02-22T07:56:14.086Z,59.85
2023-02-22T07:57:14.056Z,60.00
2023-02-22T07:58:14.113Z,59.57
2023-02-22T07:59:14.061Z,59.63
2023-02-22T08:00:14.040Z,59.63
2023-02-22T08:01:14.014Z,59.65
2023-02-22T08:02:14.044Z,59.73
2023-02-22T08:03:14.069Z,59.53
2023-02-22T08:04:13.971Z,59.57
2023-02-22T08:05:13.952Z,59.28
2023-02-22T08:06:13.962Z,59.38
2023-02-22T08:07:13.937Z,59.17
2023-02-22T08:08:13.925Z,59.22
2023-02-22T08:09:13.907Z,59.14
2023-02-22T08:10:13.914Z,58.89
2023-02-22T08:11:13.928Z,59.04
2023-02-22T08:12:13.869Z,59.52
2023-02-22T08:13:13.864Z,59.51
2023-02-22T08:14:13.859Z,59.51
2023-02-22T08:15:13.864Z,59.13
2023-02-22T08:16:13.850Z,59.02
2023-02-22T08:17:13.919Z,59.08
2023-02-22T08:18:13.795Z,58.76
2023-02-22T08:19:13.832Z,58.88
2023-02-22T08:20:13.765Z,58.69
2023-02-22T08:21:13.828Z,58.79
2023-02-22T08:22:13.746Z,58.76
2023-02-22T08:23:13.751Z,58.67
2023-02-22T08:24:13.715Z,58.54
2023-02-22T08:25:13.700Z,58.27
2023-02-22T08:26:13.713Z,58.01
2023-02-22T08:27:13.705Z,58.17
2023-02-22T08:28:13.668Z,57.73
2023-02-22T08:29:13.651Z,57.42
2023-02-22T08:30:13.666Z,57.28
2023-02-22T08:31:13.683Z,57.43
2023-02-22T08:32:13.736Z,57.18
2023-02-22T08:33:13.689Z,57.21
2023-02-22T08:34:13.614Z,56.92
2023-02-22T08:35:13.581Z,56.95
2023-02-22T08:36:13.551Z,56.98
2023-02-22T08:37:13.560Z,56.95
2023-02-22T08:38:13.538Z,56.83
2023-02-22T08:39:13.562Z,56.79
2023-02-22T08:40:14.959Z,56.83
2023-02-22T08:41:13.503Z,56.72
2023-02-22T08:42:13.499Z,56.65
2023-02-22T08:43:13.481Z,56.56
2023-02-22T08:44:13.472Z,56.58
2023-02-22T08:45:13.442Z,56.57
2023-02-22T08:46:13.468Z,55.65
2023-02-22T08:47:13.425Z,55.70
2023-02-22T08:48:13.399Z,55.42
2023-02-22T08:49:13.398Z,55.36
2023-02-22T08:50:13.373Z,55.35
2023-02-22T08:51:13.366Z,55.63
2023-02-22T08:52:13.372Z,54.80
2023-02-22T08:53:13.345Z,54.81
2023-02-22T08:54:13.323Z,54.23
2023-02-22T08:55:13.304Z,54.27
2023-02-22T08:56:13.289Z,54.47
2023-02-22T08:57:13.280Z,55.05
2023-02-22T08:58:13.267Z,54.68
2023-02-22T08:59:13.251Z,54.84
2023-02-22T09:00:13.233Z,54.61
2023-02-22T09:01:15.525Z,54.54
2023-02-22T09:02:13.270Z,53.53
2023-02-22T09:03:13.334Z,53.53
2023-02-22T09:04:13.235Z,53.39
2023-02-22T09:05:13.196Z,53.35
2023-02-22T09:06:13.207Z,53.31
2023-02-22T09:07:13.152Z,52.95
2023-02-22T09:08:13.222Z,52.95
2023-02-22T09:09:13.136Z,53.08
2023-02-22T09:10:13.134Z,53.16
2023-02-22T09:11:13.100Z,52.63
2023-02-22T09:12:13.093Z,52.27
2023-02-22T09:13:13.103Z,52.23
2023-02-22T09:14:13.087Z,52.15
2023-02-22T09:15:13.053Z,52.21
2023-02-22T09:16:13.099Z,51.06
2023-02-22T09:17:13.039Z,50.89
2023-02-22T09:18:13.013Z,50.78
2023-02-22T09:19:13.021Z,51.36
2023-02-22T09:20:12.988Z,50.94
2023-02-22T09:21:12.994Z,50.52
2023-02-22T09:22:13.022Z,50.22
2023-02-22T09:23:12.957Z,49.99
2023-02-22T09:24:12.932Z,50.62
2023-02-22T09:25:17.123Z,50.13
2023-02-22T09:26:12.906Z,50.20
2023-02-22T09:27:12.976Z,50.11
2023-02-22T09:28:12.898Z,50.06
2023-02-22T09:29:12.882Z,49.21
2023-02-22T09:30:12.874Z,47.72
2023-02-22T09:31:12.862Z,48.13
2023-02-22T09:32:13.055Z,47.93
2023-02-22T09:33:13.019Z,47.63
2023-02-22T09:34:12.823Z,48.01
2023-02-22T09:35:12.829Z,47.92
2023-02-22T09:36:12.796Z,47.90
2023-02-22T09:37:12.849Z,47.65
2023-02-22T09:38:12.775Z,47.68
2023-02-22T09:39:12.800Z,47.93
2023-02-22T09:40:12.733Z,48.19
2023-02-22T09:41:12.732Z,47.83
2023-02-22T09:42:12.733Z,47.84
2023-02-22T09:43:12.713Z,47.79
2023-02-22T09:44:12.714Z,46.76
2023-02-22T09:45:12.716Z,46.91
2023-02-22T09:46:12.706Z,46.78
2023-02-22T09:47:12.682Z,46.86
2023-02-22T09:48:21.617Z,46.62
2023-02-22T09:49:12.662Z,46.14
2023-02-22T09:50:12.623Z,46.64
2023-02-22T09:51:12.643Z,46.07
2023-02-22T09:52:12.613Z,45.66
2023-02-22T09:53:12.598Z,45.49
2023-02-22T09:54:12.569Z,46.34
2023-02-22T09:55:12.565Z,45.79
2023-02-22T09:56:12.551Z,45.37
2023-02-22T09:57:12.531Z,45.32
2023-02-22T09:58:12.525Z,45.22
2023-02-22T09:59:12.707Z,45.27
2023-02-22T10:00:12.495Z,45.59
2023-02-22T10:01:12.499Z,45.76
2023-02-22T10:02:12.464Z,45.05
2023-02-22T10:03:12.465Z,44.92
2023-02-22T10:04:12.461Z,45.14
2023-02-22T10:05:12.502Z,45.05
2023-02-22T10:06:12.446Z,44.70
2023-02-22T10:07:12.412Z,44.55
2023-02-22T10:08:12.394Z,44.54
2023-02-22T10:09:12.386Z,44.89
2023-02-22T10:10:12.371Z,44.49
2023-02-22T10:11:12.364Z,44.26
2023-02-22T10:12:12.341Z,45.72
2023-02-22T10:13:12.365Z,45.69
2023-02-22T10:14:12.315Z,44.95
2023-02-22T10:15:12.359Z,45.31
2023-02-22T10:16:12.366Z,45.45
2023-02-22T10:17:12.326Z,45.18
2023-02-22T10:18:12.255Z,45.05
2023-02-22T10:19:12.263Z,45.40
2023-02-22T10:20:12.252Z,45.95
2023-02-22T10:21:12.233Z,46.31
2023-02-22T10:22:12.205Z,46.88
2023-02-22T10:23:12.207Z,46.38
2023-02-22T10:24:12.180Z,45.15
2023-02-22T10:25:12.186Z,45.24
2023-02-22T10:26:12.262Z,44.30
2023-02-22T10:27:12.145Z,44.53
2023-02-22T10:28:12.125Z,45.16
2023-02-22T10:29:12.123Z,45.15
2023-02-22T10:30:27.800Z,45.73
2023-02-22T10:31:12.228Z,45.56
2023-02-22T10:32:12.300Z,45.73
2023-02-22T10:33:12.067Z,45.06
2023-02-22T10:34:12.054Z,44.83
2023-02-22T10:35:12.124Z,44.69
2023-02-22T10:36:19.049Z,44.91
2023-02-22T10:37:12.060Z,44.43
2023-02-22T10:38:12.004Z,44.68
2023-02-22T10:39:12.001Z,44.11
2023-02-22T10:40:12.043Z,44.21
2023-02-22T10:41:11.978Z,43.27
2023-02-22T10:42:11.942Z,43.00
2023-02-22T10:43:11.952Z,43.35
2023-02-22T10:44:11.929Z,43.05
2023-02-22T10:45:11.936Z,43.09
2023-02-22T10:46:11.957Z,42.97
2023-02-22T10:47:11.885Z,42.88
2023-02-22T10:48:11.874Z,42.50
2023-02-22T10:49:11.853Z,42.58
2023-02-22T10:50:12.550Z,42.93
2023-02-22T10:51:11.862Z,43.05
2023-02-22T10:52:11.809Z,43.57
2023-02-22T10:53:11.909Z,44.06
2023-02-22T10:54:11.800Z,45.71
2023-02-22T10:55:17.453Z,44.00
2023-02-22T10:56:11.812Z,43.51
2023-02-22T10:57:11.752Z,43.28
2023-02-22T10:58:11.762Z,42.89
2023-02-22T10:59:11.739Z,43.13
2023-02-22T11:00:11.734Z,43.08
2023-02-22T11:01:11.731Z,43.05
2023-02-22T11:02:11.694Z,43.49
2023-02-22T11:03:11.673Z,42.63
2023-02-22T11:04:11.701Z,42.54
2023-02-22T11:05:11.670Z,43.58
2023-02-22T11:06:11.642Z,44.14
2023-02-22T11:07:11.622Z,42.54
2023-02-22T11:08:11.602Z,42.66
2023-02-22T11:09:11.644Z,42.55
2023-02-22T11:10:12.573Z,43.13
2023-02-22T11:11:11.591Z,43.66
2023-02-22T11:12:11.551Z,43.16
2023-02-22T11:13:20.924Z,43.20
2023-02-22T11:14:21.887Z,43.18
2023-02-22T11:15:21.923Z,42.33
2023-02-22T11:16:21.920Z,40.84
2023-02-22T11:17:21.856Z,40.45
2023-02-22T11:18:21.856Z,41.15
2023-02-22T11:19:21.835Z,41.98
2023-02-22T11:20:21.839Z,41.42
2023-02-22T11:21:21.831Z,41.44
2023-02-22T11:22:21.794Z,41.21
2023-02-22T11:23:21.770Z,41.53
2023-02-22T11:24:22.838Z,41.55
2023-02-22T11:25:21.781Z,40.94
2023-02-22T11:26:21.740Z,41.08
2023-02-22T11:27:22.743Z,40.72
2023-02-22T11:28:21.787Z,40.87
2023-02-22T11:29:21.692Z,40.80
2023-02-22T11:30:21.717Z,41.16
2023-02-22T11:31:21.799Z,40.87
2023-02-22T11:32:21.737Z,41.40
2023-02-22T11:33:21.669Z,40.43
2023-02-22T11:34:21.768Z,40.83
2023-02-22T11:35:21.614Z,40.76
2023-02-22T11:36:21.611Z,40.52
2023-02-22T11:37:21.589Z,40.25
2023-02-22T11:38:21.908Z,40.16
2023-02-22T11:39:21.575Z,40.00
2023-02-22T11:40:21.541Z,39.81
2023-02-22T11:41:21.538Z,39.58
2023-02-22T11:42:21.524Z,39.47
2023-02-22T11:43:21.494Z,39.29
2023-02-22T11:44:21.484Z,39.15
2023-02-22T11:45:21.785Z,38.97
2023-02-22T11:46:21.495Z,39.38
2023-02-22T11:47:21.447Z,39.64
2023-02-22T11:48:21.450Z,40.40
2023-02-22T11:49:21.413Z,41.87
2023-02-22T11:50:21.401Z,43.71
2023-02-22T11:51:21.385Z,43.99
2023-02-22T11:52:21.397Z,41.82
2023-02-22T11:53:21.409Z,40.71
2023-02-22T11:54:21.342Z,41.22
2023-02-22T11:55:32.720Z,40.31
2023-02-22T11:56:35.662Z,40.09
2023-02-22T11:57:22.451Z,40.76
2023-02-22T11:58:21.275Z,40.20
2023-02-22T11:59:21.274Z,39.28
2023-02-22T12:00:21.246Z,39.85
2023-02-22T12:01:21.256Z,39.78
2023-02-22T12:02:21.221Z,38.94
2023-02-22T12:03:21.272Z,40.70
2023-02-22T12:04:21.262Z,40.00
2023-02-22T12:05:21.238Z,41.23
2023-02-22T12:06:21.163Z,42.00
2023-02-22T12:07:21.161Z,41.19
2023-02-22T12:08:21.164Z,40.97
2023-02-22T12:09:21.116Z,41.39
2023-02-22T12:10:21.128Z,41.72
2023-02-22T12:11:21.130Z,42.53
2023-02-22T12:12:21.075Z,42.10
2023-02-22T12:13:21.094Z,42.54
2023-02-22T12:14:21.102Z,41.59
2023-02-22T12:15:21.102Z,40.78
2023-02-22T12:16:21.189Z,40.22
2023-02-22T12:17:21.041Z,42.01
2023-02-22T12:18:21.024Z,40.18
2023-02-22T12:19:21.007Z,38.95
2023-02-22T12:20:20.985Z,39.16
2023-02-22T12:21:20.977Z,41.36
2023-02-22T12:22:20.944Z,38.99
2023-02-22T12:23:20.967Z,38.18
2023-02-22T12:24:20.916Z,37.34
2023-02-22T12:25:20.909Z,37.09
2023-02-22T12:26:20.890Z,37.75
2023-02-22T12:27:20.943Z,37.78
2023-02-22T12:28:24.580Z,36.57
2023-02-22T12:29:20.863Z,36.67
2023-02-22T12:30:20.901Z,36.50
2023-02-22T12:31:20.939Z,36.72
2023-02-22T12:32:21.037Z,36.32
2023-02-22T12:33:20.835Z,36.11
2023-02-22T12:34:20.810Z,36.29
2023-02-22T12:35:20.792Z,36.36
2023-02-22T12:36:20.775Z,37.39
2023-02-22T12:37:20.749Z,36.80
2023-02-22T12:38:20.759Z,36.40
2023-02-22T12:39:20.758Z,36.16
2023-02-22T12:40:20.713Z,36.96
2023-02-22T12:41:20.698Z,36.73
2023-02-22T12:42:20.686Z,37.34
2023-02-22T12:43:20.723Z,37.33
2023-02-22T12:44:20.678Z,38.31
2023-02-22T12:45:20.666Z,37.95
2023-02-22T12:46:20.681Z,38.71
2023-02-22T12:47:20.621Z,37.67
2023-02-22T12:48:20.613Z,38.10
2023-02-22T12:49:20.628Z,37.90
2023-02-22T12:50:20.600Z,37.69
2023-02-22T12:51:20.620Z,38.10
2023-02-22T12:52:22.253Z,37.47